createdAt,value
2019-02-22T00:00:10.636Z,104.20
2019-02-22T00:01:10.640Z,97.90
2019-02-22T00:02:10.643Z,106.10
2019-02-22T00:03:10.595Z,112.70
2019-02-22T00:04:10.581Z,115.30
2019-02-22T00:05:10.575Z,125.20
2019-02-22T00:06:10.562Z,114.70
2019-02-22T00:07:10.585Z,123.20
2019-02-22T00:08:10.539Z,126.30
2019-02-22T00:09:10.522Z,128.80
2019-02-22T00:10:10.516Z,140.60
2019-02-22T00:11:10.506Z,151.90
2019-02-22T00:12:10.515Z,143.70
2019-02-22T00:13:10.483Z,154.40
2019-02-22T00:14:10.471Z,142.90
2019-02-22T00:15:10.457Z,149.30
2019-02-22T00:16:10.440Z,177.00
2019-02-22T00:17:10.455Z,189.90
2019-02-22T00:18:10.420Z,184.60
2019-02-22T00:19:10.405Z,169.00
2019-02-22T00:20:10.391Z,184.10
2019-02-22T00:21:10.379Z,164.50
2019-02-22T00:22:10.392Z,191.00
2019-02-22T00:23:10.356Z,175.50
2019-02-22T00:24:10.381Z,187.10
2019-02-22T00:25:10.330Z,169.20
2019-02-22T00:26:11.148Z,175.30
2019-02-22T00:27:10.341Z,200.50
2019-02-22T00:28:10.299Z,188.10
2019-02-22T00:29:10.291Z,175.40
2019-02-22T00:30:10.282Z,209.50
2019-02-22T00:31:10.258Z,183.20
2019-02-22T00:32:10.289Z,197.40
2019-02-22T00:33:10.239Z,177.40
2019-02-22T00:34:10.330Z,171.60
2019-02-22T00:35:10.269Z,187.90
2019-02-22T00:36:10.294Z,222.90
2019-02-22T00:37:10.262Z,225.80
2019-02-22T00:38:10.194Z,206.80
2019-02-22T00:39:13.176Z,206.90
2019-02-22T00:40:10.187Z,214.20
2019-02-22T00:41:10.145Z,236.70
2019-02-22T00:42:10.159Z,200.40
2019-02-22T00:43:10.122Z,194.40
2019-02-22T00:44:10.114Z,198.80
2019-02-22T00:45:10.095Z,220.30
2019-02-22T00:46:10.083Z,190.90
2019-02-22T00:47:10.112Z,198.40
2019-02-22T00:48:10.066Z,241.50
2019-02-22T00:49:10.073Z,186.80
2019-02-22T00:50:10.041Z,188.50
2019-02-22T00:51:10.026Z,189.50
2019-02-22T00:52:10.020Z,165.60
2019-02-22T00:53:10.009Z,208.40
2019-02-22T00:54:10.034Z,211.60
2019-02-22T00:55:09.984Z,206.80
2019-02-22T00:56:09.965Z,196.20
2019-02-22T00:57:09.958Z,193.60
2019-02-22T00:58:09.944Z,187.60
2019-02-22T00:59:09.969Z,211.90
2019-02-22T01:00:09.930Z,176.20
2019-02-22T01:01:09.909Z,248.30
2019-02-22T01:02:09.897Z,212.40
2019-02-22T01:03:09.887Z,200.10
2019-02-22T01:04:09.890Z,225.80
2019-02-22T01:05:09.894Z,210.00
2019-02-22T01:06:09.861Z,206.40
2019-02-22T01:07:09.857Z,214.40
2019-02-22T01:08:09.841Z,214.90
2019-02-22T01:09:09.850Z,194.10
2019-02-22T01:10:09.810Z,267.70
2019-02-22T01:11:09.792Z,264.60
2019-02-22T01:12:09.781Z,245.60
2019-02-22T01:13:09.803Z,257.60
2019-02-22T01:14:09.763Z,276.50
2019-02-22T01:15:09.752Z,283.60
2019-02-22T01:16:09.737Z,238.20
2019-02-22T01:17:09.729Z,292.30
2019-02-22T01:18:09.737Z,287.40
2019-02-22T01:19:09.699Z,260.00
2019-02-22T01:20:09.694Z,236.70
2019-02-22T01:21:09.737Z,197.00
2019-02-22T01:22:09.668Z,310.30
2019-02-22T01:23:09.656Z,294.80
2019-02-22T01:24:09.649Z,315.50
2019-02-22T01:25:09.647Z,199.70
2019-02-22T01:26:09.647Z,265.20
2019-02-22T01:27:09.624Z,244.30
2019-02-22T01:28:09.606Z,226.70
2019-02-22T01:29:09.574Z,274.20
2019-02-22T01:30:09.566Z,256.80
2019-02-22T01:31:09.599Z,214.70
2019-02-22T01:32:09.544Z,344.40
2019-02-22T01:33:09.529Z,341.90
2019-02-22T01:34:09.522Z,314.00
2019-02-22T01:35:09.506Z,260.60
2019-02-22T01:36:09.520Z,259.90
2019-02-22T01:37:09.523Z,309.50
2019-02-22T01:38:09.473Z,310.90
2019-02-22T01:39:09.493Z,415.10
2019-02-22T01:40:09.445Z,391.20
2019-02-22T01:41:09.432Z,392.20
2019-02-22T01:42:09.425Z,386.10
2019-02-22T01:43:09.435Z,362.80
2019-02-22T01:44:09.407Z,396.80
2019-02-22T01:45:09.387Z,317.50
2019-02-22T01:46:09.384Z,258.70
2019-02-22T01:47:09.372Z,394.10
2019-02-22T01:48:09.373Z,405.50
2019-02-22T01:49:09.363Z,340.10
2019-02-22T01:50:09.332Z,446.30
2019-02-22T01:51:09.331Z,403.40
2019-02-22T01:52:09.308Z,388.40
2019-02-22T01:53:09.299Z,410.40
2019-02-22T01:54:09.316Z,365.70
2019-02-22T01:55:09.280Z,454.30
2019-02-22T01:56:09.261Z,394.60
2019-02-22T01:57:09.242Z,243.50
2019-02-22T01:58:09.231Z,527.60
2019-02-22T01:59:09.258Z,395.80
2019-02-22T02:00:09.211Z,448.30
2019-02-22T02:01:09.209Z,329.40
2019-02-22T02:02:09.226Z,452.50
2019-02-22T02:03:09.175Z,486.30
2019-02-22T02:04:09.166Z,423.90
2019-02-22T02:05:09.176Z,339.10
2019-02-22T02:06:09.144Z,283.80
2019-02-22T02:07:09.152Z,439.70
2019-02-22T02:08:09.120Z,398.90
2019-02-22T02:09:09.106Z,437.70
2019-02-22T02:10:09.092Z,492.40
2019-02-22T02:11:09.080Z,562.50
2019-02-22T02:12:09.111Z,465.10
2019-02-22T02:13:09.053Z,421.20
2019-02-22T02:14:09.065Z,431.80
2019-02-22T02:15:09.047Z,508.90
2019-02-22T02:16:09.019Z,477.70
2019-02-22T02:17:09.043Z,366.20
2019-02-22T02:18:09.049Z,327.40
2019-02-22T02:19:08.984Z,407.80
2019-02-22T02:20:09.020Z,552.50
2019-02-22T02:21:08.963Z,295.10
2019-02-22T02:22:08.973Z,512.30
2019-02-22T02:23:08.948Z,465.80
2019-02-22T02:24:08.928Z,410.90
2019-02-22T02:25:08.920Z,473.30
2019-02-22T02:26:08.904Z,599.20
2019-02-22T02:27:08.926Z,589.80
2019-02-22T02:28:08.885Z,398.00
2019-02-22T02:29:08.875Z,416.60
2019-02-22T02:30:08.862Z,430.90
2019-02-22T02:31:08.877Z,552.00
2019-02-22T02:32:08.848Z,450.90
2019-02-22T02:33:08.830Z,444.90
2019-02-22T02:34:08.813Z,475.50
2019-02-22T02:35:08.799Z,491.40
2019-02-22T02:36:08.823Z,470.80
2019-02-22T02:37:08.789Z,665.10
2019-02-22T02:38:08.770Z,553.30
2019-02-22T02:39:08.752Z,396.70
2019-02-22T02:40:08.778Z,516.80
2019-02-22T02:41:11.473Z,314.10
2019-02-22T02:42:08.746Z,533.00
2019-02-22T02:43:08.712Z,381.00
2019-02-22T02:44:08.697Z,512.90
2019-02-22T02:45:08.737Z,510.70
2019-02-22T02:46:08.703Z,412.40
2019-02-22T02:47:08.661Z,508.60
2019-02-22T02:48:08.650Z,337.30
2019-02-22T02:49:08.638Z,531.00
2019-02-22T02:50:08.666Z,516.50
2019-02-22T02:51:08.617Z,478.80
2019-02-22T02:52:08.619Z,503.50
2019-02-22T02:53:08.592Z,601.20
2019-02-22T02:54:08.580Z,597.80
2019-02-22T02:55:08.596Z,568.80
2019-02-22T02:56:08.552Z,424.40
2019-02-22T02:57:08.549Z,478.30
2019-02-22T02:58:08.534Z,356.00
2019-02-22T02:59:08.528Z,553.20
2019-02-22T03:00:08.555Z,517.40
2019-02-22T03:01:08.531Z,571.70
2019-02-22T03:02:08.493Z,566.00
2019-02-22T03:03:08.488Z,284.30
2019-02-22T03:04:08.461Z,355.70
2019-02-22T03:05:08.474Z,274.80
2019-02-22T03:06:08.460Z,278.10
2019-02-22T03:07:08.422Z,241.80
2019-02-22T03:08:08.411Z,258.20
2019-02-22T03:09:08.407Z,355.80
2019-02-22T03:10:08.438Z,348.30
2019-02-22T03:11:19.725Z,272.00
2019-02-22T03:12:09.362Z,319.00
2019-02-22T03:13:08.353Z,312.10
2019-02-22T03:14:08.342Z,409.70
2019-02-22T03:15:08.367Z,307.50
2019-02-22T03:16:08.326Z,238.00
2019-02-22T03:17:08.305Z,240.80
2019-02-22T03:18:08.295Z,212.40
2019-02-22T03:19:08.284Z,223.70
2019-02-22T03:20:08.304Z,368.50
2019-02-22T03:21:08.261Z,282.10
2019-02-22T03:22:08.249Z,353.80
2019-02-22T03:23:08.242Z,346.80
2019-02-22T03:24:08.224Z,280.70
2019-02-22T03:25:08.250Z,244.10
2019-02-22T03:26:08.197Z,249.50
2019-02-22T03:27:08.187Z,246.80
2019-02-22T03:28:08.174Z,299.40
2019-02-22T03:29:08.171Z,248.60
2019-02-22T03:30:08.190Z,228.60
2019-02-22T03:31:08.178Z,263.70
2019-02-22T03:32:08.133Z,300.30
2019-02-22T03:33:08.117Z,317.90
2019-02-22T03:34:08.112Z,297.30
2019-02-22T03:35:08.094Z,157.50
2019-02-22T03:36:08.120Z,311.30
2019-02-22T03:37:08.103Z,251.10
2019-02-22T03:38:08.054Z,225.30
2019-02-22T03:39:08.044Z,299.60
2019-02-22T03:40:08.032Z,237.80
2019-02-22T03:41:08.053Z,189.00
2019-02-22T03:42:08.012Z,205.30
2019-02-22T03:43:08.021Z,314.00
2019-02-22T03:44:07.987Z,201.30
2019-02-22T03:45:07.971Z,297.30
2019-02-22T03:46:07.992Z,260.40
2019-02-22T03:47:07.978Z,191.10
2019-02-22T03:48:07.938Z,209.80
2019-02-22T03:49:07.927Z,310.90
2019-02-22T03:50:07.912Z,271.90
2019-02-22T03:51:07.906Z,305.20
2019-02-22T03:52:07.912Z,280.00
2019-02-22T03:53:07.882Z,211.70
2019-02-22T03:54:07.864Z,229.60
2019-02-22T03:55:07.855Z,222.40
2019-02-22T03:56:07.858Z,170.30
2019-02-22T03:57:07.886Z,205.80
2019-02-22T03:58:07.814Z,234.90
2019-02-22T03:59:07.803Z,201.10
2019-02-22T04:00:07.799Z,198.20
2019-02-22T04:01:07.781Z,267.10
2019-02-22T04:02:07.811Z,252.60
2019-02-22T04:03:07.764Z,278.10
2019-02-22T04:04:07.744Z,271.90
2019-02-22T04:05:07.733Z,169.30
2019-02-22T04:06:07.757Z,253.00
2019-02-22T04:07:07.715Z,198.90
2019-02-22T04:08:07.703Z,228.50
2019-02-22T04:09:07.693Z,215.20
2019-02-22T04:10:07.739Z,139.10
2019-02-22T04:11:07.662Z,198.00
2019-02-22T04:12:07.661Z,207.00
2019-02-22T04:13:07.637Z,288.20
2019-02-22T04:14:07.631Z,281.80
2019-02-22T04:15:07.641Z,153.50
2019-02-22T04:16:07.607Z,265.80
2019-02-22T04:17:07.590Z,323.50
2019-02-22T04:18:07.614Z,251.10
2019-02-22T04:19:07.561Z,412.70
2019-02-22T04:20:07.548Z,431.00
2019-02-22T04:21:07.570Z,443.60
2019-02-22T04:22:07.527Z,496.50
2019-02-22T04:23:07.542Z,379.90
2019-02-22T04:24:07.503Z,492.30
2019-02-22T04:25:07.494Z,284.60
2019-02-22T04:26:07.512Z,384.60
2019-02-22T04:27:07.475Z,402.10
2019-02-22T04:28:07.457Z,458.40
2019-02-22T04:29:07.452Z,274.30
2019-02-22T04:30:07.431Z,358.00
2019-02-22T04:31:07.448Z,321.50
2019-02-22T04:32:07.409Z,291.20
2019-02-22T04:33:07.398Z,286.30
2019-02-22T04:34:07.430Z,341.90
2019-02-22T04:35:07.421Z,402.90
2019-02-22T04:36:07.372Z,364.40
2019-02-22T04:37:07.352Z,311.30
2019-02-22T04:38:07.343Z,284.40
2019-02-22T04:39:07.363Z,338.80
2019-02-22T04:40:07.356Z,340.90
2019-02-22T04:41:07.318Z,314.40
2019-02-22T04:42:07.294Z,335.40
2019-02-22T04:43:07.286Z,198.70
2019-02-22T04:44:07.271Z,227.70
2019-02-22T04:45:07.293Z,307.10
2019-02-22T04:46:07.253Z,371.00
2019-02-22T04:47:07.240Z,321.00
2019-02-22T04:48:07.262Z,369.80
2019-02-22T04:49:07.215Z,368.70
2019-02-22T04:50:07.234Z,547.00
2019-02-22T04:51:07.219Z,539.40
2019-02-22T04:52:07.187Z,626.30
2019-02-22T04:53:07.204Z,478.10
2019-02-22T04:54:07.157Z,691.80
2019-02-22T04:55:07.171Z,348.10
2019-02-22T04:56:07.184Z,753.60
2019-02-22T04:57:07.133Z,677.10
2019-02-22T04:58:07.121Z,537.90
2019-02-22T04:59:07.106Z,605.90
2019-02-22T05:00:07.103Z,504.60
2019-02-22T05:01:07.107Z,530.60
2019-02-22T05:02:07.067Z,703.00
2019-02-22T05:03:07.051Z,693.60
2019-02-22T05:04:07.052Z,599.20
2019-02-22T05:05:07.074Z,480.50
2019-02-22T05:06:07.017Z,386.60
2019-02-22T05:07:07.034Z,727.50
2019-02-22T05:08:06.993Z,775.30
2019-02-22T05:09:06.987Z,603.30
2019-02-22T05:10:06.981Z,586.20
2019-02-22T05:11:06.962Z,611.20
2019-02-22T05:12:10.854Z,537.50
2019-02-22T05:13:06.932Z,335.40
2019-02-22T05:14:06.946Z,344.90
2019-02-22T05:15:12.625Z,562.10
2019-02-22T05:16:07.905Z,340.40
2019-02-22T05:17:06.913Z,577.90
2019-02-22T05:18:06.931Z,578.90
2019-02-22T05:19:06.901Z,638.30
2019-02-22T05:20:06.862Z,418.50
2019-02-22T05:21:06.843Z,276.00
2019-02-22T05:22:06.866Z,276.60
2019-02-22T05:23:07.637Z,330.20
2019-02-22T05:24:06.826Z,285.80
2019-02-22T05:25:06.791Z,243.40
2019-02-22T05:26:06.782Z,327.50
2019-02-22T05:27:06.807Z,271.90
2019-02-22T05:28:06.761Z,281.40
2019-02-22T05:29:06.746Z,195.00
2019-02-22T05:30:06.755Z,366.10
2019-02-22T05:31:06.723Z,333.30
2019-02-22T05:32:06.750Z,284.50
2019-02-22T05:33:06.715Z,377.10
2019-02-22T05:34:06.691Z,307.60
2019-02-22T05:35:06.703Z,213.50
2019-02-22T05:36:06.667Z,284.10
2019-02-22T05:37:06.652Z,362.10
2019-02-22T05:38:06.685Z,318.10
2019-02-22T05:39:18.086Z,404.10
2019-02-22T05:40:07.645Z,354.20
2019-02-22T05:41:06.607Z,339.40
2019-02-22T05:42:06.619Z,240.50
2019-02-22T05:43:06.580Z,207.30
2019-02-22T05:44:06.602Z,160.60
2019-02-22T05:45:06.557Z,167.70
2019-02-22T05:46:06.580Z,207.90
2019-02-22T05:47:06.538Z,236.30
2019-02-22T05:48:06.519Z,260.70
2019-02-22T05:49:06.515Z,142.90
2019-02-22T05:50:06.501Z,186.90
2019-02-22T05:51:06.605Z,142.80
2019-02-22T05:52:06.468Z,148.40
2019-02-22T05:53:06.464Z,135.60
2019-02-22T05:54:06.450Z,187.00
2019-02-22T05:55:06.437Z,153.20
2019-02-22T05:56:06.450Z,169.50
2019-02-22T05:57:06.411Z,171.00
2019-02-22T05:58:06.408Z,154.80
2019-02-22T05:59:06.396Z,148.50
2019-02-22T06:00:06.430Z,204.10
2019-02-22T06:01:06.984Z,172.40
2019-02-22T06:02:06.356Z,190.50
2019-02-22T06:03:06.340Z,160.50
2019-02-22T06:04:06.330Z,174.50
2019-02-22T06:05:06.350Z,197.00
2019-02-22T06:06:06.334Z,177.60
2019-02-22T06:07:06.296Z,151.20
2019-02-22T06:08:08.778Z,143.30
2019-02-22T06:09:06.288Z,173.40
2019-02-22T06:10:06.262Z,168.00
2019-02-22T06:11:06.289Z,177.30
2019-02-22T06:12:06.249Z,178.00
2019-02-22T06:13:06.229Z,158.50
2019-02-22T06:14:06.247Z,156.30
2019-02-22T06:15:06.207Z,134.40
2019-02-22T06:16:06.224Z,140.70
2019-02-22T06:17:14.209Z,172.00
2019-02-22T06:18:07.184Z,158.80
2019-02-22T06:19:06.161Z,189.80
2019-02-22T06:20:06.196Z,151.00
2019-02-22T06:21:06.159Z,149.50
2019-02-22T06:22:06.125Z,153.20
2019-02-22T06:23:06.119Z,147.50
2019-02-22T06:24:06.151Z,179.20
2019-02-22T06:25:06.115Z,181.80
2019-02-22T06:26:06.110Z,173.00
2019-02-22T06:27:06.070Z,179.70
2019-02-22T06:28:06.062Z,131.30
2019-02-22T06:29:06.158Z,176.20
2019-02-22T06:30:06.072Z,176.20
2019-02-22T06:31:06.021Z,140.50
2019-02-22T06:32:06.015Z,164.90
2019-02-22T06:33:06.012Z,143.80
2019-02-22T06:34:06.030Z,153.00
2019-02-22T06:35:08.709Z,159.60
2019-02-22T06:36:05.979Z,119.90
2019-02-22T06:37:05.972Z,125.70
2019-02-22T06:38:05.948Z,136.00
2019-02-22T06:39:05.974Z,166.10
2019-02-22T06:40:05.925Z,149.20
2019-02-22T06:41:05.924Z,148.50
2019-02-22T06:42:05.909Z,137.50
2019-02-22T06:43:05.884Z,149.80
2019-02-22T06:44:05.905Z,126.90
2019-02-22T06:45:05.881Z,134.10
2019-02-22T06:46:05.884Z,134.30
2019-02-22T06:47:06.084Z,126.00
2019-02-22T06:48:05.839Z,135.40
2019-02-22T06:49:05.818Z,118.80
2019-02-22T06:50:05.885Z,114.40
2019-02-22T06:51:05.797Z,117.10
2019-02-22T06:52:05.833Z,136.90
2019-02-22T06:53:05.774Z,123.70
2019-02-22T06:54:05.772Z,124.90
2019-02-22T06:55:05.760Z,123.70
2019-02-22T06:56:05.739Z,143.30
2019-02-22T06:57:05.767Z,117.50
2019-02-22T06:58:05.714Z,134.50
2019-02-22T06:59:05.706Z,107.50
2019-02-22T07:00:05.704Z,161.90
2019-02-22T07:01:05.679Z,132.90
2019-02-22T07:02:05.695Z,128.90
2019-02-22T07:03:05.657Z,103.40
2019-02-22T07:04:05.646Z,89.90
2019-02-22T07:05:05.649Z,100.90
2019-02-22T07:06:05.866Z,116.70
2019-02-22T07:07:05.755Z,97.10
2019-02-22T07:08:05.683Z,105.00
2019-02-22T07:09:05.635Z,126.00
2019-02-22T07:10:05.646Z,109.90
2019-02-22T07:11:06.290Z,100.50
2019-02-22T07:12:06.262Z,111.30
2019-02-22T07:13:05.589Z,103.40
2019-02-22T07:14:05.560Z,104.30
2019-02-22T07:15:05.536Z,113.30
2019-02-22T07:16:05.516Z,132.60
2019-02-22T07:17:05.542Z,113.10
2019-02-22T07:18:05.510Z,110.50
2019-02-22T07:19:05.505Z,111.70
2019-02-22T07:20:05.467Z,137.40
2019-02-22T07:21:05.458Z,116.90
2019-02-22T07:22:05.468Z,116.40
2019-02-22T07:23:05.469Z,122.10
2019-02-22T07:24:05.420Z,101.30
2019-02-22T07:25:05.406Z,126.90
2019-02-22T07:26:05.407Z,127.30
2019-02-22T07:27:05.412Z,85.90
2019-02-22T07:28:05.373Z,119.20
2019-02-22T07:29:05.363Z,113.00
2019-02-22T07:30:05.374Z,94.20
2019-02-22T07:31:05.401Z,125.60
2019-02-22T07:32:06.423Z,130.10
2019-02-22T07:33:05.312Z,111.80
2019-02-22T07:34:05.305Z,127.40
2019-02-22T07:35:05.319Z,111.90
2019-02-22T07:36:05.286Z,126.10
2019-02-22T07:37:05.289Z,109.80
2019-02-22T07:38:05.258Z,106.90
2019-02-22T07:39:05.255Z,118.80
2019-02-22T07:40:05.267Z,149.40
2019-02-22T07:41:05.230Z,104.60
2019-02-22T07:42:05.206Z,112.20
2019-02-22T07:43:07.916Z,92.00
2019-02-22T07:44:05.215Z,85.00
2019-02-22T07:45:05.173Z,134.80
2019-02-22T07:46:05.158Z,120.70
2019-02-22T07:47:05.149Z,121.80
2019-02-22T07:48:05.162Z,114.80
2019-02-22T07:49:05.714Z,102.30
2019-02-22T07:50:05.167Z,91.80
2019-02-22T07:51:05.108Z,86.70
2019-02-22T07:52:05.098Z,107.90
2019-02-22T07:53:05.120Z,97.00
2019-02-22T07:54:05.092Z,113.70
2019-02-22T07:55:05.051Z,100.10
2019-02-22T07:56:05.097Z,120.20
2019-02-22T07:57:05.033Z,111.80
2019-02-22T07:58:05.053Z,112.80
2019-02-22T07:59:05.030Z,137.90
2019-02-22T08:00:05.018Z,101.60
2019-02-22T08:01:05.054Z,128.80
2019-02-22T08:02:04.974Z,133.70
2019-02-22T08:03:04.968Z,95.30
2019-02-22T08:04:04.940Z,133.30
2019-02-22T08:05:04.950Z,136.10
2019-02-22T08:06:04.920Z,121.80
2019-02-22T08:07:04.934Z,159.30
2019-02-22T08:08:04.891Z,116.00
2019-02-22T08:09:04.876Z,115.80
2019-02-22T08:10:04.896Z,108.10
2019-02-22T08:11:04.874Z,120.70
2019-02-22T08:12:04.910Z,121.60
2019-02-22T08:13:04.831Z,101.70
2019-02-22T08:14:07.645Z,117.20
2019-02-22T08:15:04.804Z,116.60
2019-02-22T08:16:04.796Z,119.70
2019-02-22T08:17:04.810Z,130.00
2019-02-22T08:18:04.796Z,98.00
2019-02-22T08:19:04.795Z,107.20
2019-02-22T08:20:04.744Z,133.50
2019-02-22T08:21:04.759Z,114.60
2019-02-22T08:22:04.724Z,101.20
2019-02-22T08:23:04.708Z,114.10
2019-02-22T08:24:04.720Z,97.50
2019-02-22T08:25:04.683Z,93.50
2019-02-22T08:26:04.675Z,111.00
2019-02-22T08:27:04.660Z,99.90
2019-02-22T08:28:04.649Z,101.00
2019-02-22T08:29:04.670Z,118.80
2019-02-22T08:30:04.623Z,92.10
2019-02-22T08:31:04.612Z,112.70
2019-02-22T08:32:04.602Z,120.40
2019-02-22T08:33:04.610Z,109.10
2019-02-22T08:34:04.607Z,123.00
2019-02-22T08:35:04.570Z,110.60
2019-02-22T08:36:04.574Z,117.00
2019-02-22T08:37:04.538Z,120.00
2019-02-22T08:38:04.524Z,108.00
2019-02-22T08:39:04.553Z,120.10
2019-02-22T08:40:04.752Z,127.40
2019-02-22T08:41:04.545Z,112.70
2019-02-22T08:42:04.478Z,120.00
2019-02-22T08:44:14.312Z,122.30
2019-02-22T08:45:14.235Z,126.70
2019-02-22T08:46:14.222Z,141.70
2019-02-22T08:47:14.212Z,115.00
2019-02-22T08:48:14.207Z,106.20
2019-02-22T08:49:14.188Z,113.60
2019-02-22T08:50:14.604Z,104.40
2019-02-22T08:51:14.175Z,102.00
2019-02-22T08:52:14.169Z,96.70
2019-02-22T08:53:14.149Z,97.50
2019-02-22T08:54:14.131Z,102.50
2019-02-22T08:55:14.111Z,95.40
2019-02-22T08:56:14.150Z,106.40
2019-02-22T08:57:14.107Z,84.00
2019-02-22T08:58:14.103Z,75.50
2019-02-22T08:59:14.069Z,83.30
2019-02-22T09:00:14.072Z,75.60
2019-02-22T09:01:14.065Z,83.00
2019-02-22T09:02:14.108Z,75.80
2019-02-22T09:03:14.033Z,73.30
2019-02-22T09:04:14.006Z,77.40
2019-02-22T09:05:13.993Z,74.30
2019-02-22T09:06:14.037Z,81.50
2019-02-22T09:07:13.975Z,86.80
2019-02-22T09:08:13.982Z,79.10
2019-02-22T09:09:13.948Z,87.10
2019-02-22T09:10:13.953Z,73.30
2019-02-22T09:11:13.923Z,76.90
2019-02-22T09:12:13.932Z,78.10
2019-02-22T09:13:13.898Z,78.00
2019-02-22T09:14:13.976Z,76.90
2019-02-22T09:15:13.874Z,78.60
2019-02-22T09:16:13.898Z,69.50
2019-02-22T09:17:13.865Z,68.90
2019-02-22T09:18:13.855Z,66.70
2019-02-22T09:19:13.829Z,67.10
2019-02-22T09:20:13.861Z,67.60
2019-02-22T09:21:13.809Z,61.60
2019-02-22T09:22:22.390Z,71.90
2019-02-22T09:23:14.788Z,78.20
2019-02-22T09:24:13.791Z,66.20
2019-02-22T09:25:13.764Z,61.40
2019-02-22T09:26:13.779Z,60.80
2019-02-22T09:27:13.734Z,62.00
2019-02-22T09:28:13.741Z,59.60
2019-02-22T09:29:13.772Z,55.50
2019-02-22T09:30:13.711Z,57.70
2019-02-22T09:31:13.716Z,59.40
2019-02-22T09:32:13.697Z,63.30
2019-02-22T09:33:13.690Z,62.40
2019-02-22T09:34:13.667Z,54.80
2019-02-22T09:35:13.658Z,54.40
2019-02-22T09:36:13.643Z,57.30
2019-02-22T09:37:13.627Z,53.30
2019-02-22T09:38:13.682Z,50.00
2019-02-22T09:39:13.600Z,56.00
2019-02-22T09:40:14.788Z,53.70
2019-02-22T09:41:13.574Z,50.60
2019-02-22T09:42:13.575Z,41.00
2019-02-22T09:43:13.551Z,44.60
2019-02-22T09:44:13.565Z,46.70
2019-02-22T09:45:13.534Z,47.30
2019-02-22T09:46:13.544Z,41.00
2019-02-22T09:47:13.513Z,34.50
2019-02-22T09:48:13.497Z,39.30
2019-02-22T09:49:13.493Z,35.50
2019-02-22T09:50:13.520Z,37.40
2019-02-22T09:51:13.479Z,35.40
2019-02-22T09:52:13.455Z,37.40
2019-02-22T09:53:13.459Z,32.70
2019-02-22T09:54:13.430Z,33.20
2019-02-22T09:55:13.433Z,33.10
2019-02-22T09:56:13.517Z,35.80
2019-02-22T09:57:13.397Z,34.80
2019-02-22T09:58:13.443Z,30.90
2019-02-22T09:59:13.370Z,31.90
2019-02-22T10:00:13.422Z,33.00
2019-02-22T10:01:13.370Z,32.80
2019-02-22T10:02:13.390Z,30.40
2019-02-22T10:03:13.393Z,23.90
2019-02-22T10:04:13.348Z,21.40
2019-02-22T10:05:13.302Z,24.90
2019-02-22T10:06:13.295Z,25.70
2019-02-22T10:07:13.283Z,24.10
2019-02-22T10:08:13.313Z,22.70
2019-02-22T10:09:13.259Z,24.10
2019-02-22T10:10:13.280Z,27.60
2019-02-22T10:11:13.235Z,27.70
2019-02-22T10:12:13.237Z,23.90
2019-02-22T10:13:13.220Z,23.10
2019-02-22T10:14:13.226Z,21.60
2019-02-22T10:15:13.203Z,20.40
2019-02-22T10:16:13.187Z,21.00
2019-02-22T10:17:13.190Z,22.10
2019-02-22T10:18:13.158Z,21.60
2019-02-22T10:19:13.209Z,19.70
2019-02-22T10:20:13.169Z,20.30
2019-02-22T10:21:13.138Z,20.70
2019-02-22T10:22:13.155Z,21.70
2019-02-22T10:23:13.103Z,21.40
2019-02-22T10:24:13.140Z,20.50
2019-02-22T10:25:13.122Z,20.70
2019-02-22T10:26:13.164Z,20.60
2019-02-22T10:27:13.056Z,21.00
2019-02-22T10:28:17.780Z,17.70
2019-02-22T10:29:14.060Z,19.90
2019-02-22T10:30:13.044Z,19.80
2019-02-22T10:31:13.048Z,20.50
2019-02-22T10:32:13.018Z,22.10
2019-02-22T10:33:12.993Z,21.20
2019-02-22T10:34:12.997Z,18.20
2019-02-22T10:35:12.972Z,18.80
2019-02-22T10:36:12.964Z,19.40
2019-02-22T10:37:12.958Z,20.60
2019-02-22T10:38:12.948Z,18.90
2019-02-22T10:39:12.923Z,19.70
2019-02-22T10:40:12.920Z,18.50
2019-02-22T10:41:12.904Z,17.70
2019-02-22T10:42:12.919Z,17.30
2019-02-22T10:43:12.913Z,16.30
2019-02-22T10:44:17.654Z,16.60
2019-02-22T10:45:13.849Z,16.00
2019-02-22T10:46:12.840Z,16.30
2019-02-22T10:47:12.829Z,14.40
2019-02-22T10:48:12.847Z,15.40
2019-02-22T10:49:12.811Z,15.60
2019-02-22T10:50:12.874Z,14.30
2019-02-22T10:51:12.821Z,13.70
2019-02-22T10:52:12.791Z,13.60
2019-02-22T10:53:12.769Z,11.90
2019-02-22T10:54:12.760Z,12.00
2019-02-22T10:55:12.814Z,10.30
2019-02-22T10:56:12.751Z,11.00
2019-02-22T10:57:12.724Z,11.70
2019-02-22T10:58:12.707Z,11.00
2019-02-22T10:59:12.713Z,11.50
2019-02-22T11:00:12.780Z,11.70
2019-02-22T11:01:12.709Z,11.80
2019-02-22T11:02:12.737Z,12.60
2019-02-22T11:03:12.704Z,10.10
2019-02-22T11:04:12.643Z,9.90
2019-02-22T11:05:12.683Z,11.80
2019-02-22T11:06:12.630Z,10.70
2019-02-22T11:07:12.610Z,10.60
2019-02-22T11:08:12.642Z,11.00
2019-02-22T11:09:12.610Z,10.80
2019-02-22T11:10:12.579Z,11.30
2019-02-22T11:11:12.571Z,9.40
2019-02-22T11:12:12.565Z,10.10
2019-02-22T11:13:12.569Z,9.40
2019-02-22T11:14:12.594Z,9.20
2019-02-22T11:15:12.517Z,8.70
2019-02-22T11:16:12.517Z,9.10
2019-02-22T11:17:12.496Z,8.60
2019-02-22T11:18:12.523Z,9.10
2019-02-22T11:19:12.504Z,9.70
2019-02-22T11:20:12.500Z,8.80
2019-02-22T11:21:12.465Z,8.40
2019-02-22T11:22:12.442Z,8.60
2019-02-22T11:23:12.466Z,8.30
2019-02-22T11:24:12.460Z,8.00
2019-02-22T11:25:12.408Z,5.70
2019-02-22T11:26:12.414Z,4.90
2019-02-22T11:27:12.453Z,5.90
2019-02-22T11:28:12.422Z,6.50
2019-02-22T11:29:12.394Z,6.20
2019-02-22T11:30:12.360Z,5.90
2019-02-22T11:31:12.336Z,6.90
2019-02-22T11:32:12.377Z,6.80
2019-02-22T11:33:12.334Z,6.90
2019-02-22T11:34:12.323Z,6.50
2019-02-22T11:35:12.294Z,6.10
2019-02-22T11:36:12.286Z,5.70
2019-02-22T11:37:12.283Z,5.60
2019-02-22T11:38:12.294Z,5.60
2019-02-22T11:39:12.264Z,5.30
2019-02-22T11:40:12.234Z,6.00
2019-02-22T11:41:12.225Z,5.30
2019-02-22T11:42:12.223Z,6.00
2019-02-22T11:43:12.235Z,5.10
2019-02-22T11:44:12.209Z,5.60
2019-02-22T11:45:12.178Z,4.90
2019-02-22T11:46:12.167Z,4.70
2019-02-22T11:47:12.173Z,5.50
2019-02-22T11:48:12.165Z,4.30
2019-02-22T11:49:12.141Z,4.60
2019-02-22T11:50:12.143Z,5.70
2019-02-22T11:51:12.111Z,4.10
2019-02-22T11:52:12.143Z,3.50
2019-02-22T11:53:12.107Z,2.90
2019-02-22T11:54:12.079Z,3.10
2019-02-22T11:55:12.065Z,3.40
2019-02-22T11:56:12.110Z,3.20
2019-02-22T11:57:12.078Z,3.70
2019-02-22T11:58:12.051Z,3.90
2019-02-22T11:59:12.027Z,3.10
2019-02-22T12:00:12.008Z,3.10
2019-02-22T12:01:12.006Z,3.70
2019-02-22T12:02:12.066Z,3.70
2019-02-22T12:03:23.910Z,3.00
2019-02-22T12:04:12.990Z,3.30
2019-02-22T12:05:11.966Z,3.90
2019-02-22T12:06:11.941Z,3.90
2019-02-22T12:07:11.969Z,3.20
2019-02-22T12:08:12.010Z,3.20
2019-02-22T12:09:11.970Z,4.00
2019-02-22T12:10:11.967Z,3.80
2019-02-22T12:11:11.932Z,3.90
2019-02-22T12:12:11.895Z,3.10
2019-02-22T12:13:11.880Z,2.80
2019-02-22T12:14:11.879Z,3.60
2019-02-22T12:15:11.891Z,2.80
2019-02-22T12:16:11.863Z,3.60
2019-02-22T12:17:11.820Z,3.40
2019-02-22T12:18:11.824Z,3.30
2019-02-22T12:19:11.804Z,3.50
2019-02-22T12:20:11.837Z,3.80
2019-02-22T12:21:11.794Z,3.60
2019-02-22T12:22:11.789Z,3.10
2019-02-22T12:23:11.757Z,3.40
2019-02-22T12:24:11.740Z,4.20
2019-02-22T12:25:11.728Z,3.70
2019-02-22T12:26:11.768Z,3.80
2019-02-22T12:27:14.117Z,3.60
2019-02-22T12:28:11.702Z,4.30
2019-02-22T12:29:11.682Z,4.10
2019-02-22T12:30:11.729Z,4.10
2019-02-22T12:31:11.690Z,4.00
2019-02-22T12:32:11.688Z,4.00
2019-02-22T12:33:11.633Z,5.20
2019-02-22T12:34:11.640Z,4.40
2019-02-22T12:35:11.657Z,4.20
2019-02-22T12:36:11.661Z,4.20
2019-02-22T12:37:11.597Z,4.40
2019-02-22T12:38:11.596Z,4.10
2019-02-22T12:39:11.564Z,4.20